createdAt,value
2024-01-05T00:00:00.936Z,276.86
2024-01-05T00:01:00.934Z,275.69
2024-01-05T00:02:00.813Z,278.75
2024-01-05T00:03:02.295Z,277.80
2024-01-05T00:04:00.838Z,276.39
2024-01-05T00:05:00.744Z,276.39
2024-01-05T00:06:00.889Z,275.23
2024-01-05T00:07:01.850Z,277.80
2024-01-05T00:08:00.727Z,279.22
2024-01-05T00:09:01.225Z,279.70
2024-01-05T00:10:00.745Z,280.66
2024-01-05T00:11:00.663Z,280.66
2024-01-05T00:12:03.372Z,280.42
2024-01-05T00:13:00.741Z,279.94
2024-01-05T00:14:00.852Z,278.04
2024-01-05T00:15:00.784Z,276.39
2024-01-05T00:16:00.765Z,276.86
2024-01-05T00:17:00.800Z,271.79
2024-01-05T00:18:00.872Z,270.44
2024-01-05T00:19:00.995Z,271.12
2024-01-05T00:20:00.720Z,269.11
2024-01-05T00:21:00.837Z,272.47
2024-01-05T00:22:01.025Z,272.25
2024-01-05T00:23:00.707Z,271.12
2024-01-05T00:24:00.819Z,273.39
2024-01-05T00:25:01.411Z,270.44
2024-01-05T00:26:00.473Z,269.77
2024-01-05T00:27:00.628Z,268.89
2024-01-05T00:28:00.681Z,271.12
2024-01-05T00:29:00.522Z,273.16
2024-01-05T00:30:01.646Z,275.92
2024-01-05T00:31:01.443Z,275.46
2024-01-05T00:32:00.850Z,275.69
2024-01-05T00:33:01.419Z,274.99
2024-01-05T00:34:00.817Z,272.47
2024-01-05T00:35:01.272Z,266.04
2024-01-05T00:36:00.708Z,265.18
2024-01-05T00:37:00.799Z,269.77
2024-01-05T00:38:02.152Z,274.30
2024-01-05T00:39:02.157Z,271.79
2024-01-05T00:40:01.605Z,273.39
2024-01-05T00:41:02.224Z,275.23
2024-01-05T00:42:01.490Z,277.80
2024-01-05T00:43:01.400Z,279.46
2024-01-05T00:44:02.212Z,285.32
2024-01-05T00:45:01.804Z,289.87
2024-01-05T00:46:04.032Z,288.34
2024-01-05T00:47:00.659Z,289.10
2024-01-05T00:48:01.037Z,289.36
2024-01-05T00:49:02.649Z,289.36
2024-01-05T00:50:01.146Z,293.51
2024-01-05T00:51:00.567Z,294.84
2024-01-05T00:52:00.403Z,298.34
2024-01-05T00:53:00.923Z,295.64
2024-01-05T00:54:00.492Z,299.70
2024-01-05T00:55:00.299Z,300.25
2024-01-05T00:56:00.187Z,295.10
2024-01-05T00:57:00.069Z,297.52
2024-01-05T00:58:00.886Z,291.94
2024-01-05T00:59:01.154Z,295.90
2024-01-05T01:00:00.916Z,302.48
2024-01-05T01:01:00.174Z,301.92
2024-01-05T01:02:01.414Z,309.05
2024-01-05T01:03:00.863Z,312.30
2024-01-05T01:04:00.114Z,322.47
2024-01-05T01:05:01.047Z,326.33
2024-01-05T01:06:00.836Z,328.30
2024-01-05T01:07:01.275Z,326.98
2024-01-05T01:08:00.633Z,325.36
2024-01-05T01:09:00.224Z,328.30
2024-01-05T01:10:01.786Z,330.96
2024-01-05T01:11:00.489Z,329.62
2024-01-05T01:12:00.323Z,324.71
2024-01-05T01:13:01.193Z,319.32
2024-01-05T01:14:00.128Z,322.47
2024-01-05T01:15:02.053Z,323.75
2024-01-05T01:15:59.845Z,322.79
2024-01-05T01:17:00.062Z,327.64
2024-01-05T01:18:00.846Z,328.30
2024-01-05T01:19:00.055Z,329.95
2024-01-05T01:20:00.334Z,333.32
2024-01-05T01:20:59.964Z,327.64
2024-01-05T01:21:59.848Z,327.97
2024-01-05T01:22:59.632Z,325.68
2024-01-05T01:23:59.688Z,323.43
2024-01-05T01:24:59.687Z,323.43
2024-01-05T01:25:59.753Z,323.11
2024-01-05T01:26:59.712Z,319.94
2024-01-05T01:27:59.842Z,318.08
2024-01-05T01:28:59.643Z,316.23
2024-01-05T01:29:59.706Z,313.20
2024-01-05T01:30:59.657Z,312.00
2024-01-05T01:31:59.549Z,306.16
2024-01-05T01:32:59.693Z,303.32
2024-01-05T01:33:59.939Z,301.92
2024-01-05T01:34:59.537Z,303.88
2024-01-05T01:35:59.785Z,305.02
2024-01-05T01:36:59.504Z,307.31
2024-01-05T01:37:59.537Z,306.16
2024-01-05T01:38:59.813Z,305.59
2024-01-05T01:39:59.516Z,303.60
2024-01-05T01:40:59.734Z,301.92
2024-01-05T01:41:59.601Z,301.36
2024-01-05T01:42:59.540Z,304.73
2024-01-05T01:43:59.486Z,305.30
2024-01-05T01:44:59.431Z,307.60
2024-01-05T01:45:59.411Z,311.71
2024-01-05T01:46:59.469Z,313.50
2024-01-05T01:47:59.630Z,315.92
2024-01-05T01:48:59.506Z,323.11
2024-01-05T01:49:59.542Z,320.89
2024-01-05T01:50:59.281Z,323.75
2024-01-05T01:51:59.301Z,327.97
2024-01-05T01:52:59.241Z,330.62
2024-01-05T01:53:59.260Z,331.63
2024-01-05T01:54:59.365Z,329.95
2024-01-05T01:55:59.298Z,335.72
2024-01-05T01:56:59.213Z,329.29
2024-01-05T01:57:59.177Z,331.63
2024-01-05T01:58:59.176Z,336.41
2024-01-05T01:59:59.154Z,336.41
2024-01-05T02:00:59.273Z,340.61
2024-01-05T02:01:59.124Z,344.93
2024-01-05T02:03:00.041Z,346.76
2024-01-05T02:03:59.400Z,345.65
2024-01-05T02:04:59.194Z,337.80
2024-01-05T02:05:59.457Z,323.75
2024-01-05T02:06:59.320Z,315.31
2024-01-05T02:07:59.416Z,314.71
2024-01-05T02:08:59.304Z,314.10
2024-01-05T02:09:59.835Z,306.45
2024-01-05T02:10:59.344Z,304.45
2024-01-05T02:11:59.744Z,309.35
2024-01-05T02:12:58.981Z,308.18
2024-01-05T02:13:59.025Z,309.05
2024-01-05T02:14:59.235Z,310.82
2024-01-05T02:15:59.686Z,311.11
2024-01-05T02:16:59.057Z,310.82
2024-01-05T02:17:59.306Z,309.64
2024-01-05T02:18:59.438Z,308.47
2024-01-05T02:19:59.957Z,308.76
2024-01-05T02:21:02.258Z,307.89
2024-01-05T02:22:01.611Z,305.87
2024-01-05T02:22:59.910Z,307.60
2024-01-05T02:23:59.446Z,306.73
2024-01-05T02:24:59.377Z,306.16
2024-01-05T02:26:02.879Z,304.73
2024-01-05T02:27:00.656Z,300.53
2024-01-05T02:27:59.207Z,299.70
2024-01-05T02:29:00.322Z,293.78
2024-01-05T02:30:00.798Z,293.25
2024-01-05T02:30:59.902Z,296.17
2024-01-05T02:32:00.011Z,291.94
2024-01-05T02:33:00.734Z,292.99
2024-01-05T02:34:00.433Z,296.17
2024-01-05T02:34:59.749Z,291.94
2024-01-05T02:36:01.129Z,291.42
2024-01-05T02:37:00.207Z,290.90
2024-01-05T02:38:00.132Z,290.39
2024-01-05T02:38:59.214Z,287.58
2024-01-05T02:39:59.745Z,287.07
2024-01-05T02:41:01.173Z,283.83
2024-01-05T02:42:00.284Z,280.90
2024-01-05T02:42:58.767Z,278.51
2024-01-05T02:43:58.690Z,276.16
2024-01-05T02:44:59.175Z,270.89
2024-01-05T02:45:58.915Z,265.18
2024-01-05T02:46:58.993Z,261.36
2024-01-05T02:47:58.992Z,256.44
2024-01-05T02:48:58.795Z,255.24
2024-01-05T02:49:58.930Z,253.07
2024-01-05T02:50:59.507Z,255.84
2024-01-05T02:51:58.712Z,254.45
2024-01-05T02:52:59.448Z,252.48
2024-01-05T02:53:58.636Z,252.09
2024-01-05T02:54:59.078Z,249.02
2024-01-05T02:56:00.208Z,249.78
2024-01-05T02:57:00.798Z,245.10
2024-01-05T02:57:58.656Z,244.36
2024-01-05T02:58:59.024Z,242.55
2024-01-05T02:59:58.690Z,241.83
2024-01-05T03:00:58.638Z,237.96
2024-01-05T03:01:58.867Z,235.39
2024-01-05T03:02:58.933Z,236.07
2024-01-05T03:03:59.702Z,233.21
2024-01-05T03:04:59.605Z,232.21
2024-01-05T03:05:59.236Z,229.28
2024-01-05T03:06:59.614Z,225.18
2024-01-05T03:07:59.157Z,223.63
2024-01-05T03:08:58.627Z,225.95
2024-01-05T03:09:58.594Z,228.48
2024-01-05T03:10:58.382Z,232.71
2024-01-05T03:11:59.616Z,238.83
2024-01-05T03:12:58.689Z,238.65
2024-01-05T03:13:58.491Z,243.82
2024-01-05T03:14:58.596Z,244.18
2024-01-05T03:15:58.346Z,247.14
2024-01-05T03:16:58.533Z,250.93
2024-01-05T03:17:58.422Z,255.24
2024-01-05T03:18:59.557Z,257.86
2024-01-05T03:19:58.899Z,259.29
2024-01-05T03:21:01.412Z,261.15
2024-01-05T03:21:59.421Z,264.96
2024-01-05T03:22:58.680Z,264.96
2024-01-05T03:24:00.633Z,263.47
2024-01-05T03:24:59.297Z,269.77
2024-01-05T03:25:58.173Z,268.01
2024-01-05T03:26:58.410Z,267.79
2024-01-05T03:27:59.869Z,269.33
2024-01-05T03:28:59.834Z,270.67
2024-01-05T03:29:58.748Z,273.39
2024-01-05T03:30:58.971Z,280.90
2024-01-05T03:31:58.275Z,282.85
2024-01-05T03:32:58.404Z,287.32
2024-01-05T03:33:58.282Z,286.82
2024-01-05T03:34:58.631Z,288.85
2024-01-05T03:35:58.247Z,293.78
2024-01-05T03:37:00.055Z,298.88
2024-01-05T03:37:58.208Z,298.34
2024-01-05T03:38:58.368Z,299.98
2024-01-05T03:39:57.965Z,302.76
2024-01-05T03:40:58.124Z,301.08
2024-01-05T03:41:57.986Z,301.64
2024-01-05T03:42:57.936Z,303.88
2024-01-05T03:43:58.189Z,300.81
2024-01-05T03:44:58.014Z,295.64
2024-01-05T03:45:58.040Z,296.17
2024-01-05T03:46:58.025Z,293.78
2024-01-05T03:47:58.234Z,288.08
2024-01-05T03:48:58.020Z,284.32
2024-01-05T03:49:58.407Z,278.51
2024-01-05T03:50:57.923Z,278.75
2024-01-05T03:51:57.904Z,283.34
2024-01-05T03:52:58.035Z,291.68
2024-01-05T03:53:58.002Z,292.46
2024-01-05T03:55:00.766Z,291.94
2024-01-05T03:55:58.111Z,297.52
2024-01-05T03:56:58.825Z,299.15
2024-01-05T03:57:58.415Z,300.81
2024-01-05T03:58:58.343Z,301.08
2024-01-05T03:59:59.355Z,299.70
2024-01-05T04:00:58.116Z,298.06
2024-01-05T04:01:57.854Z,296.71
2024-01-05T04:02:58.314Z,292.99
2024-01-05T04:03:58.381Z,291.16
2024-01-05T04:04:58.436Z,293.78
2024-01-05T04:05:58.007Z,299.70
2024-01-05T04:06:57.815Z,304.17
2024-01-05T04:07:57.719Z,306.16
2024-01-05T04:08:57.709Z,303.60
2024-01-05T04:09:57.700Z,301.92
2024-01-05T04:10:57.488Z,301.36
2024-01-05T04:11:57.852Z,296.71
2024-01-05T04:12:57.468Z,294.57
2024-01-05T04:13:57.392Z,292.20
2024-01-05T04:14:57.493Z,288.85
2024-01-05T04:15:57.490Z,287.58
2024-01-05T04:16:57.400Z,285.32
2024-01-05T04:17:57.500Z,284.57
2024-01-05T04:18:57.404Z,281.39
2024-01-05T04:19:57.707Z,276.62
2024-01-05T04:20:58.023Z,269.33
2024-01-05T04:21:57.401Z,263.89
2024-01-05T04:22:57.374Z,258.06
2024-01-05T04:23:58.331Z,251.70
2024-01-05T04:24:58.485Z,245.10
2024-01-05T04:25:57.536Z,244.73
2024-01-05T04:26:57.476Z,239.53
2024-01-05T04:27:58.032Z,238.83
2024-01-05T04:28:57.379Z,231.39
2024-01-05T04:29:57.301Z,226.42
2024-01-05T04:30:58.327Z,217.82
2024-01-05T04:31:57.513Z,214.53
2024-01-05T04:32:58.272Z,212.03
2024-01-05T04:33:58.601Z,213.55
2024-01-05T04:34:57.292Z,216.09
2024-01-05T04:35:58.102Z,213.27
2024-01-05T04:36:58.275Z,214.82
2024-01-05T04:37:57.360Z,210.93
2024-01-05T04:38:57.166Z,210.39
2024-01-05T04:39:57.208Z,208.25
2024-01-05T04:40:57.187Z,202.82
2024-01-05T04:41:57.857Z,200.21
2024-01-05T04:42:57.234Z,203.58
2024-01-05T04:43:58.350Z,201.07
2024-01-05T04:44:58.389Z,197.43
2024-01-05T04:45:57.198Z,195.54
2024-01-05T04:46:57.213Z,194.84
2024-01-05T04:47:57.060Z,199.24
2024-01-05T04:48:57.253Z,199.72
2024-01-05T04:49:58.810Z,197.91
2024-01-05T04:50:59.215Z,196.60
2024-01-05T04:51:58.034Z,193.46
2024-01-05T04:52:58.553Z,196.36
2024-01-05T04:53:57.417Z,198.27
2024-01-05T04:54:57.258Z,201.82
2024-01-05T04:55:57.783Z,201.07
2024-01-05T04:56:57.520Z,198.75
2024-01-05T04:57:56.925Z,192.21
2024-01-05T04:58:57.904Z,186.29
2024-01-05T04:59:57.590Z,194.96
2024-01-05T05:00:57.147Z,209.72
2024-01-05T05:01:57.107Z,214.11
2024-01-05T05:02:57.264Z,213.69
2024-01-05T05:03:57.126Z,215.95
2024-01-05T05:04:58.927Z,208.51
2024-01-05T05:05:56.901Z,206.80
2024-01-05T05:06:57.226Z,202.82
2024-01-05T05:07:56.873Z,192.77
2024-01-05T05:08:56.768Z,185.34
2024-01-05T05:09:56.742Z,182.09
2024-01-05T05:10:57.145Z,182.69
2024-01-05T05:11:56.848Z,182.69
2024-01-05T05:12:57.795Z,184.93
2024-01-05T05:13:57.031Z,187.90
2024-01-05T05:14:56.972Z,182.49
2024-01-05T05:15:57.547Z,171.92
2024-01-05T05:16:56.665Z,161.09
2024-01-05T05:17:57.509Z,151.00
2024-01-05T05:18:56.789Z,144.44
2024-01-05T05:19:57.156Z,140.41
2024-01-05T05:20:57.519Z,135.27
2024-01-05T05:21:59.729Z,131.53
2024-01-05T05:22:59.259Z,124.81
2024-01-05T05:23:57.890Z,118.67
2024-01-05T05:24:56.686Z,113.71
2024-01-05T05:25:56.680Z,109.88
2024-01-05T05:26:56.840Z,105.29
2024-01-05T05:29:07.340Z,109.38
2024-01-05T05:30:08.399Z,101.50
2024-01-05T05:31:08.373Z,99.43
2024-01-05T05:32:08.284Z,101.31
2024-01-05T05:33:08.347Z,100.64
2024-01-05T05:34:08.371Z,97.97
2024-01-05T05:35:08.253Z,95.33
2024-01-05T05:36:08.261Z,95.27
2024-01-05T05:37:08.228Z,94.46
2024-01-05T05:38:08.497Z,94.21
2024-01-05T05:39:08.285Z,91.21
2024-01-05T05:40:08.196Z,90.12
2024-01-05T05:41:08.174Z,90.12
2024-01-05T05:42:08.187Z,90.02
2024-01-05T05:43:08.158Z,89.15
2024-01-05T05:44:08.141Z,88.77
2024-01-05T05:45:08.249Z,87.65
2024-01-05T05:46:08.099Z,87.28
2024-01-05T05:47:08.120Z,86.20
2024-01-05T05:48:08.161Z,84.02
2024-01-05T05:49:08.276Z,82.76
2024-01-05T05:50:08.071Z,82.27
2024-01-05T05:51:08.078Z,81.07
2024-01-05T05:52:08.029Z,80.13
2024-01-05T05:53:08.040Z,78.61
2024-01-05T05:54:08.073Z,78.17
2024-01-05T05:55:07.992Z,78.10
2024-01-05T05:56:07.995Z,77.66
2024-01-05T05:57:07.988Z,78.17
2024-01-05T05:58:07.976Z,77.95
2024-01-05T05:59:07.943Z,77.44
2024-01-05T06:00:07.944Z,76.17
2024-01-05T06:01:07.929Z,76.24
2024-01-05T06:02:07.900Z,76.66
2024-01-05T06:03:10.058Z,78.03
2024-01-05T06:04:07.928Z,77.81
2024-01-05T06:05:07.857Z,77.59
2024-01-05T06:06:07.867Z,77.30
2024-01-05T06:07:07.848Z,77.30
2024-01-05T06:08:07.829Z,77.08
2024-01-05T06:09:07.824Z,76.24
2024-01-05T06:10:07.962Z,75.00
2024-01-05T06:11:07.801Z,74.86
2024-01-05T06:12:07.935Z,74.33
2024-01-05T06:13:07.779Z,73.54
2024-01-05T06:14:08.000Z,75.13
2024-01-05T06:15:07.762Z,77.51
2024-01-05T06:16:07.702Z,79.59
2024-01-05T06:17:07.742Z,82.43
2024-01-05T06:18:07.858Z,81.31
2024-01-05T06:19:07.756Z,80.05
2024-01-05T06:20:07.765Z,79.37
2024-01-05T06:21:07.696Z,78.69
2024-01-05T06:22:07.673Z,80.21
2024-01-05T06:23:07.674Z,82.43
2024-01-05T06:24:07.665Z,83.18
2024-01-05T06:25:07.611Z,82.76
2024-01-05T06:26:07.619Z,83.01
2024-01-05T06:27:07.726Z,82.43
2024-01-05T06:28:07.613Z,81.23
2024-01-05T06:29:07.573Z,79.98
2024-01-05T06:30:07.647Z,79.67
2024-01-05T06:31:07.624Z,78.54
2024-01-05T06:32:07.498Z,77.81
2024-01-05T06:33:07.608Z,76.80
2024-01-05T06:34:07.568Z,75.68
2024-01-05T06:35:07.482Z,74.46
2024-01-05T06:36:07.467Z,72.89
2024-01-05T06:37:07.446Z,71.89
2024-01-05T06:38:07.416Z,71.89
2024-01-05T06:39:07.443Z,72.57
2024-01-05T06:40:07.422Z,73.08
2024-01-05T06:41:07.381Z,72.83
2024-01-05T06:42:09.249Z,72.07
2024-01-05T06:43:07.379Z,72.01
2024-01-05T06:44:07.338Z,75.89
2024-01-05T06:45:07.360Z,78.25
2024-01-05T06:46:07.337Z,79.67
2024-01-05T06:47:07.346Z,82.52
2024-01-05T06:48:07.637Z,84.62
2024-01-05T06:49:07.464Z,84.36
2024-01-05T06:50:07.503Z,83.93
2024-01-05T06:51:07.301Z,83.26
2024-01-05T06:52:07.337Z,82.03
2024-01-05T06:53:07.237Z,83.35
2024-01-05T06:54:07.377Z,83.18
2024-01-05T06:55:07.334Z,83.93
2024-01-05T06:56:07.516Z,86.92
2024-01-05T06:57:07.280Z,87.10
2024-01-05T06:58:07.223Z,87.28
2024-01-05T06:59:07.165Z,86.65
2024-01-05T07:00:07.469Z,86.20
2024-01-05T07:01:07.452Z,90.12
2024-01-05T07:02:07.288Z,91.61
2024-01-05T07:03:08.822Z,89.93
2024-01-05T07:04:07.240Z,87.28
2024-01-05T07:05:08.243Z,85.40
2024-01-05T07:06:15.274Z,84.62
2024-01-05T07:07:10.263Z,84.88
2024-01-05T07:08:07.218Z,86.74
2024-01-05T07:09:07.624Z,91.71
2024-01-05T07:10:07.157Z,94.64
2024-01-05T07:11:07.632Z,93.47
2024-01-05T07:12:09.173Z,93.57
2024-01-05T07:13:09.616Z,91.92
2024-01-05T07:14:07.170Z,91.01
2024-01-05T07:15:10.215Z,90.42
2024-01-05T07:16:10.046Z,89.25
2024-01-05T07:17:12.662Z,90.02
2024-01-05T07:18:07.867Z,90.91
2024-01-05T07:19:07.186Z,89.93
2024-01-05T07:20:06.889Z,93.47
2024-01-05T07:21:06.903Z,94.42
2024-01-05T07:22:06.870Z,94.41
2024-01-05T07:23:06.846Z,98.84
2024-01-05T07:24:06.923Z,103.07
2024-01-05T07:25:06.816Z,103.32
2024-01-05T07:26:06.797Z,106.03
2024-01-05T07:27:07.025Z,107.61
2024-01-05T07:28:06.790Z,109.38
2024-01-05T07:29:06.797Z,108.80
2024-01-05T07:30:07.065Z,105.82
2024-01-05T07:31:07.250Z,105.29
2024-01-05T07:32:09.746Z,109.09
2024-01-05T07:33:13.218Z,113.71
2024-01-05T07:34:10.256Z,110.32
2024-01-05T07:35:07.082Z,107.54
2024-01-05T07:36:09.160Z,104.69
2024-01-05T07:37:06.742Z,104.69
2024-01-05T07:38:08.325Z,99.79
2024-01-05T07:39:09.034Z,99.19
2024-01-05T07:40:07.968Z,105.56
2024-01-05T07:41:06.729Z,109.66
2024-01-05T07:42:11.398Z,114.58
2024-01-05T07:43:20.284Z,115.77
2024-01-05T07:44:08.603Z,113.17
2024-01-05T07:45:08.421Z,119.95
2024-01-05T07:46:07.078Z,122.88
2024-01-05T07:47:11.229Z,118.75
2024-01-05T07:48:08.646Z,122.33
2024-01-05T07:49:06.691Z,132.47
2024-01-05T07:50:06.717Z,138.89
2024-01-05T07:51:07.991Z,142.95
2024-01-05T07:52:06.957Z,146.09
2024-01-05T07:53:07.243Z,141.73
2024-01-05T07:54:09.393Z,136.38
2024-01-05T07:55:07.535Z,129.48
2024-01-05T07:56:09.829Z,123.88
2024-01-05T07:57:07.126Z,119.69
2024-01-05T07:58:06.635Z,120.04
2024-01-05T07:59:09.652Z,121.08
2024-01-05T08:00:06.757Z,117.32
2024-01-05T08:01:06.417Z,117.66
2024-01-05T08:02:06.466Z,128.48
2024-01-05T08:03:06.639Z,137.85
2024-01-05T08:04:06.586Z,143.69
2024-01-05T08:05:07.539Z,145.96
2024-01-05T08:06:06.728Z,150.73
2024-01-05T08:07:06.438Z,149.24
2024-01-05T08:08:06.605Z,147.91
2024-01-05T08:09:06.364Z,153.23
2024-01-05T08:10:06.482Z,163.31
2024-01-05T08:11:06.378Z,168.61
2024-01-05T08:12:06.556Z,173.18
2024-01-05T08:13:08.128Z,177.62
2024-01-05T08:14:07.005Z,175.74
2024-01-05T08:15:08.666Z,171.39
2024-01-05T08:16:08.052Z,162.51
2024-01-05T08:17:06.370Z,150.32
2024-01-05T08:18:07.202Z,138.89
2024-01-05T08:19:06.403Z,136.05
2024-01-05T08:20:06.200Z,136.05
2024-01-05T08:21:06.243Z,137.17
2024-01-05T08:22:06.195Z,135.94
2024-01-05T08:23:06.166Z,138.54
2024-01-05T08:24:06.169Z,138.08
2024-01-05T08:25:06.136Z,140.41
2024-01-05T08:26:06.141Z,141.61
2024-01-05T08:27:06.259Z,147.12
2024-01-05T08:28:06.189Z,158.48
2024-01-05T08:29:06.090Z,165.09
2024-01-05T08:30:06.329Z,166.08
2024-01-05T08:31:06.161Z,163.15
2024-01-05T08:32:06.044Z,160.47
2024-01-05T08:33:06.260Z,169.82
2024-01-05T08:34:06.464Z,169.82
2024-01-05T08:35:06.377Z,171.39
2024-01-05T08:36:05.989Z,178.19
2024-01-05T08:37:05.949Z,181.30
2024-01-05T08:38:06.073Z,179.15
2024-01-05T08:39:06.002Z,174.27
2024-01-05T08:40:05.958Z,170.34
2024-01-05T08:41:06.232Z,171.39
2024-01-05T08:42:05.926Z,169.82
2024-01-05T08:43:06.015Z,163.47
2024-01-05T08:44:06.002Z,155.37
2024-01-05T08:45:06.048Z,150.45
2024-01-05T08:46:05.872Z,145.07
2024-01-05T08:47:05.876Z,138.89
2024-01-05T08:48:05.876Z,132.36
2024-01-05T08:49:06.037Z,129.38
2024-01-05T08:50:05.958Z,129.88
2024-01-05T08:51:05.850Z,128.28
2024-01-05T08:52:05.831Z,127.69
2024-01-05T08:53:05.775Z,125.47
2024-01-05T08:54:06.393Z,121.26
2024-01-05T08:55:05.733Z,113.95
2024-01-05T08:56:05.762Z,108.24
2024-01-05T08:57:05.801Z,107.26
2024-01-05T08:58:05.748Z,102.06
2024-01-05T08:59:05.712Z,99.08
2024-01-05T09:00:05.818Z,102.18
2024-01-05T09:01:05.862Z,101.06
2024-01-05T09:02:05.890Z,101.06
2024-01-05T09:03:05.730Z,98.78
2024-01-05T09:04:05.647Z,96.71
2024-01-05T09:05:06.476Z,97.28
2024-01-05T09:06:05.908Z,98.90
2024-01-05T09:07:05.774Z,99.85
2024-01-05T09:08:05.580Z,100.76
2024-01-05T09:09:06.164Z,101.06
2024-01-05T09:10:05.746Z,103.84
2024-01-05T09:11:05.559Z,99.08
2024-01-05T09:12:05.596Z,97.11
2024-01-05T09:13:05.552Z,98.61
2024-01-05T09:14:05.502Z,98.61
2024-01-05T09:15:05.528Z,97.68
2024-01-05T09:16:05.584Z,98.66
2024-01-05T09:17:05.469Z,100.45
2024-01-05T09:18:05.554Z,99.97
2024-01-05T09:19:05.481Z,100.21
2024-01-05T09:20:05.475Z,98.72
2024-01-05T09:21:05.480Z,100.27
2024-01-05T09:22:05.653Z,100.15
2024-01-05T09:23:05.561Z,103.58
2024-01-05T09:24:05.923Z,102.88
2024-01-05T09:25:05.426Z,100.76
2024-01-05T09:26:05.403Z,108.38
2024-01-05T09:27:05.376Z,115.13
2024-01-05T09:28:05.332Z,122.42
2024-01-05T09:29:05.326Z,130.39
2024-01-05T09:30:05.540Z,134.72
2024-01-05T09:31:05.452Z,149.24
2024-01-05T09:32:05.275Z,159.09
2024-01-05T09:33:05.694Z,154.94
2024-01-05T09:34:05.511Z,157.14
2024-01-05T09:35:05.233Z,163.79
2024-01-05T09:36:05.478Z,166.75
2024-01-05T09:37:05.397Z,159.70
2024-01-05T09:38:05.199Z,160.16
2024-01-05T09:39:05.170Z,157.58
2024-01-05T09:40:05.151Z,162.35
2024-01-05T09:41:05.195Z,160.47
2024-01-05T09:42:05.152Z,154.22
2024-01-05T09:43:05.104Z,145.20
2024-01-05T09:44:05.121Z,142.83
2024-01-05T09:45:05.160Z,139.59
2024-01-05T09:46:05.066Z,139.12
2024-01-05T09:47:05.022Z,142.09
2024-01-05T09:48:05.261Z,130.70
2024-01-05T09:49:05.395Z,124.91
2024-01-05T09:50:05.118Z,120.47
2024-01-05T09:51:05.058Z,121.35
2024-01-05T09:52:04.962Z,117.74
2024-01-05T09:53:04.950Z,115.13
2024-01-05T09:54:05.007Z,122.96
2024-01-05T09:55:04.956Z,134.62
2024-01-05T09:56:04.938Z,148.97
2024-01-05T09:57:05.060Z,154.36
2024-01-05T09:58:04.992Z,162.35
2024-01-05T09:59:04.964Z,169.64
2024-01-05T10:00:05.023Z,185.24
2024-01-05T10:01:05.234Z,190.53
2024-01-05T10:02:04.907Z,186.38
2024-01-05T10:03:04.906Z,175.18
2024-01-05T10:04:05.441Z,176.67
2024-01-05T10:05:05.515Z,179.34
2024-01-05T10:06:04.945Z,175.74
2024-01-05T10:07:05.067Z,175.18
2024-01-05T10:08:04.818Z,182.29
2024-01-05T10:09:04.794Z,184.92
2024-01-05T10:10:04.774Z,194.38
2024-01-05T10:11:04.743Z,200.21
2024-01-05T10:12:04.754Z,208.51
2024-01-05T10:13:04.825Z,202.70
2024-01-05T10:14:04.733Z,193.46
2024-01-05T10:15:04.712Z,189.42
2024-01-05T10:16:04.762Z,189.20
2024-01-05T10:17:04.677Z,196.01
2024-01-05T10:18:04.822Z,198.51
2024-01-05T10:19:04.797Z,201.45
2024-01-05T10:20:04.758Z,201.69
2024-01-05T10:21:04.648Z,212.30
2024-01-05T10:22:04.643Z,206.02
2024-01-05T10:23:04.680Z,195.07
2024-01-05T10:24:04.668Z,186.08
2024-01-05T10:25:04.568Z,175.93
2024-01-05T10:26:04.748Z,164.44
2024-01-05T10:27:05.501Z,151.41
2024-01-05T10:28:04.638Z,152.38
2024-01-05T10:29:05.442Z,147.78
2024-01-05T10:30:04.563Z,143.94
2024-01-05T10:31:04.631Z,141.49
2024-01-05T10:32:05.465Z,135.38
2024-01-05T10:33:04.836Z,134.40
2024-01-05T10:34:04.564Z,126.33
2024-01-05T10:35:04.668Z,117.82
2024-01-05T10:36:04.521Z,117.91
2024-01-05T10:37:04.406Z,126.81
2024-01-05T10:38:04.410Z,127.98
2024-01-05T10:39:04.451Z,122.78
2024-01-05T10:40:04.377Z,125.95
2024-01-05T10:41:04.346Z,129.58
2024-01-05T10:42:04.388Z,138.54
2024-01-05T10:43:04.363Z,145.96
2024-01-05T10:44:04.347Z,150.45
2024-01-05T10:45:04.403Z,152.38
2024-01-05T10:46:04.264Z,151.69
2024-01-05T10:47:04.295Z,147.65
2024-01-05T10:48:04.467Z,151.41
2024-01-05T10:49:04.396Z,159.70
2024-01-05T10:50:04.289Z,161.72
2024-01-05T10:51:04.223Z,155.81
2024-01-05T10:52:04.187Z,150.45
2024-01-05T10:53:04.175Z,145.71
2024-01-05T10:54:04.964Z,146.22
2024-01-05T10:55:05.255Z,144.82
2024-01-05T10:56:04.217Z,143.94
2024-01-05T10:57:04.207Z,150.18
2024-01-05T10:58:04.135Z,146.48
2024-01-05T10:59:04.100Z,134.62
2024-01-05T11:00:04.261Z,133.00
2024-01-05T11:01:04.199Z,137.74
2024-01-05T11:02:04.094Z,143.94
2024-01-05T11:03:04.189Z,145.71
2024-01-05T11:04:04.204Z,152.66
2024-01-05T11:05:04.166Z,151.83
2024-01-05T11:06:04.210Z,145.45
2024-01-05T11:07:04.125Z,146.22
2024-01-05T11:08:04.036Z,168.10
2024-01-05T11:09:04.060Z,176.86
2024-01-05T11:10:03.943Z,177.43
2024-01-05T11:11:03.947Z,180.90
2024-01-05T11:12:04.046Z,189.20
2024-01-05T11:13:03.941Z,186.40
2024-01-05T11:14:03.977Z,185.97
2024-01-05T11:15:03.975Z,179.34
2024-01-05T11:16:03.895Z,179.92
2024-01-05T11:17:03.860Z,184.93
2024-01-05T11:18:04.035Z,184.72
2024-01-05T11:19:03.898Z,195.66
2024-01-05T11:20:03.916Z,200.70
2024-01-05T11:21:03.959Z,213.97
2024-01-05T11:22:03.915Z,219.28
2024-01-05T11:23:03.831Z,231.55
2024-01-05T11:24:03.983Z,254.64
2024-01-05T11:25:03.920Z,271.57
2024-01-05T11:26:03.744Z,263.89
2024-01-05T11:27:03.824Z,265.83
2024-01-05T11:28:04.014Z,267.57
2024-01-05T11:29:10.291Z,251.51
2024-01-05T11:30:03.800Z,220.17
2024-01-05T11:31:03.771Z,195.07
2024-01-05T11:32:03.657Z,185.55
2024-01-05T11:33:03.737Z,173.18
2024-01-05T11:34:03.729Z,176.11
2024-01-05T11:35:03.753Z,184.82
2024-01-05T11:36:03.612Z,185.75
2024-01-05T11:37:03.651Z,161.88
2024-01-05T11:38:03.544Z,152.10
2024-01-05T11:39:03.617Z,169.64
2024-01-05T11:40:03.518Z,165.42
2024-01-05T11:41:03.522Z,165.26
2024-01-05T11:42:03.552Z,167.93
2024-01-05T11:43:03.509Z,170.86
2024-01-05T11:44:03.463Z,193.92
2024-01-05T11:45:03.481Z,206.80
2024-01-05T11:46:03.448Z,227.68
2024-01-05T11:47:03.452Z,259.49
2024-01-05T11:48:03.586Z,268.01
2024-01-05T11:49:03.461Z,265.61
2024-01-05T11:50:03.390Z,280.42
2024-01-05T11:51:03.471Z,270.67
2024-01-05T11:52:03.354Z,257.05
2024-01-05T11:53:03.399Z,279.94
2024-01-05T11:54:03.440Z,294.31
2024-01-05T11:55:03.340Z,295.64
2024-01-05T11:56:03.307Z,297.79
2024-01-05T11:57:03.338Z,273.84
2024-01-05T11:58:03.308Z,225.95
2024-01-05T11:59:03.272Z,189.75
2024-01-05T12:00:03.343Z,206.80
2024-01-05T12:01:03.410Z,207.85
2024-01-05T12:02:03.237Z,201.32
2024-01-05T12:03:03.309Z,199.11
2024-01-05T12:04:03.295Z,196.60
2024-01-05T12:05:03.308Z,188.55
2024-01-05T12:06:03.359Z,203.07
2024-01-05T12:07:03.210Z,213.27
2024-01-05T12:08:03.156Z,221.36
2024-01-05T12:09:03.225Z,233.71
2024-01-05T12:10:03.129Z,240.59
2024-01-05T12:11:03.120Z,252.87
2024-01-05T12:12:03.122Z,247.88
2024-01-05T12:13:03.111Z,249.78
2024-01-05T12:14:03.074Z,270.44
2024-01-05T12:15:03.080Z,301.64
2024-01-05T12:16:03.231Z,319.01
2024-01-05T12:17:03.036Z,317.46
2024-01-05T12:18:03.181Z,332.98
2024-01-05T12:19:03.200Z,337.10
2024-01-05T12:20:03.128Z,345.65
2024-01-05T12:21:03.003Z,345.65
2024-01-05T12:22:02.993Z,356.20
2024-01-05T12:23:02.967Z,356.59
2024-01-05T12:24:03.125Z,336.41
2024-01-05T12:25:02.929Z,340.26
2024-01-05T12:26:02.920Z,351.60
2024-01-05T12:27:02.961Z,368.65
2024-01-05T12:28:02.910Z,380.71
2024-01-05T12:29:02.925Z,378.47
2024-01-05T12:30:02.916Z,371.17
2024-01-05T12:31:03.055Z,367.41
2024-01-05T12:32:02.838Z,364.54
2024-01-05T12:33:03.006Z,367.00